Time;durP1;ratioP1;P1;durP2;ratioP2;P2;SDS_P1;SDS_P2;PMS_P1;PMS_P2;Temp;Humidity;BMP_temperature;BMP_pressure;BME280_temperature;BME280_humidity;BME280_pressure;Samples;Min_cycle;Max_cycle;Signal;HPM_P1;HPM_P2
2021/05/31 00:01:10;;;;;;;5.32;3.45;;;;;;;;;;3534555;40;20046;-61
2021/05/31 00:03:36;;;;;;;6.43;3.70;;;;;;;;;;3537113;40;20125;-59
2021/05/31 00:06:03;;;;;;;4.60;3.28;;;;;;;;;;3538633;40;20080;-59
2021/05/31 00:08:29;;;;;;;8.68;3.15;;;;;;;;;;3540705;40;20696;-59
2021/05/31 00:10:55;;;;;;;10.05;4.60;;;;;;;;;;3539282;40;20077;-61
2021/05/31 00:13:21;;;;;;;8.27;3.72;;;;;;;;;;3538136;40;20046;-61
2021/05/31 00:15:47;;;;;;;7.30;3.80;;;;;;;;;;3536021;40;20034;-59
2021/05/31 00:18:15;;;;;;;6.93;3.25;;;;;;;;;;3533698;40;20047;-59
2021/05/31 00:20:41;;;;;;;7.65;4.05;;;;;;;;;;3529784;40;20097;-59
2021/05/31 00:23:07;;;;;;;7.13;3.40;;;;;;;;;;3530583;40;20050;-59
2021/05/31 00:25:33;;;;;;;4.93;3.50;;;;;;;;;;3532693;40;20119;-59
2021/05/31 00:27:59;;;;;;;6.90;3.70;;;;;;;;;;3533721;40;20031;-59
2021/05/31 00:30:26;;;;;;;8.93;3.75;;;;;;;;;;3536020;40;20074;-59
2021/05/31 00:32:52;;;;;;;56.72;8.02;;;;;;;;;;3530523;40;20080;-61
2021/05/31 00:35:18;;;;;;;66.93;9.65;;;;;;;;;;3530917;40;20422;-61
2021/05/31 00:37:45;;;;;;;80.93;10.48;;;;;;;;;;3531972;40;20405;-61
2021/05/31 00:40:11;;;;;;;35.08;6.70;;;;;;;;;;3533518;40;20038;-60
2021/05/31 00:42:38;;;;;;;72.03;10.15;;;;;;;;;;3535802;40;20907;-61
2021/05/31 00:45:06;;;;;;;11.52;4.28;;;6.80;99.90;;;;;;3537248;40;20034;-59
2021/05/31 00:47:32;;;;;;;5.70;3.83;;;;;;;;;;3532075;40;20019;-59
2021/05/31 00:49:58;;;;;;;6.25;3.70;;;;;;;;;;3531744;40;20034;-61
2021/05/31 00:52:24;;;;;;;6.63;3.35;;;;;;;;;;3533935;40;20083;-59
2021/05/31 00:54:51;;;;;;;6.93;3.58;;;;;;;;;;3535851;40;20050;-59
2021/05/31 00:57:17;;;;;;;4.82;3.22;;;6.50;99.90;;;;;;3537164;40;20051;-59
2021/05/31 00:59:43;;;;;;;6.47;3.75;;;6.50;99.90;;;;;;3538739;40;20058;-59
2021/05/31 01:02:09;;;;;;;9.02;4.53;;;6.40;99.90;;;;;;3539680;40;20042;-59
2021/05/31 01:04:35;;;;;;;6.93;3.90;;;6.40;99.90;;;;;;3545800;40;20027;-59
2021/05/31 01:07:08;;;;;;;6.70;3.85;;;6.30;99.90;;;;;;3537387;40;20051;-59
2021/05/31 01:09:45;;;;;;;6.25;3.80;;;6.30;99.90;;;;;;3534378;40;20043;-59
2021/05/31 01:12:28;;;;;;;10.30;4.40;;;6.30;99.90;;;;;;3537946;40;20389;-60
2021/05/31 01:15:02;;;;;;;7.63;4.32;;;6.20;99.90;;;;;;3540171;40;20037;-59
2021/05/31 01:17:46;;;;;;;6.70;3.97;;;6.20;99.90;;;;;;3538990;40;20042;-59
2021/05/31 01:20:22;;;;;;;6.68;3.92;;;6.10;99.90;;;;;;3538158;40;20087;-59
2021/05/31 01:22:49;;;;;;;5.82;3.72;;;6.10;99.90;;;;;;3536315;40;20031;-59
2021/05/31 01:25:25;;;;;;;8.35;3.97;;;6.00;99.90;;;;;;3537656;40;20058;-59
2021/05/31 01:28:25;;;;;;;6.72;4.00;;;6.00;99.90;;;;;;3540090;40;20037;-59
2021/05/31 01:30:52;;;;;;;7.68;3.95;;;6.00;99.90;;;;;;3539074;40;20038;-59
2021/05/31 01:33:22;;;;;;;10.20;4.38;;;6.00;99.90;;;;;;3535805;40;20027;-59
2021/05/31 01:35:50;;;;;;;5.95;3.70;;;5.90;99.90;;;;;;3535642;40;20089;-59
2021/05/31 01:38:18;;;;;;;8.68;3.90;;;5.90;99.90;;;;;;3533430;40;20738;-59
2021/05/31 01:40:45;;;;;;;5.93;3.80;;;5.90;99.90;;;;;;3532449;40;20031;-66
2021/05/31 01:43:11;;;;;;;5.75;3.47;;;5.80;99.90;;;;;;3534398;40;20034;-67
2021/05/31 01:45:37;;;;;;;7.15;3.85;;;5.80;99.90;;;;;;3532327;40;20034;-67
2021/05/31 01:48:03;;;;;;;8.70;4.07;;;6.30;99.90;;;;;;3535288;40;20739;-67
2021/05/31 01:50:30;;;;;;;9.43;4.05;;;5.70;99.90;;;;;;3538334;40;20046;-67
2021/05/31 01:52:57;;;;;;;6.82;3.95;;;5.70;99.90;;;;;;3547229;40;20046;-67
2021/05/31 01:55:24;;;;;;;8.70;4.05;;;5.60;99.90;;;;;;3539573;40;20495;-67
2021/05/31 01:57:50;;;;;;;7.85;4.20;;;5.60;99.90;;;;;;3532737;40;20039;-67
2021/05/31 02:00:18;;;;;;;9.18;4.18;;;5.60;99.90;;;;;;3535556;40;20514;-67
2021/05/31 02:02:44;;;;;;;9.65;4.50;;;5.70;99.90;;;;;;3536501;40;20042;-67
2021/05/31 02:05:11;;;;;;;8.68;4.35;;;5.50;99.90;;;;;;3537971;40;20042;-67
2021/05/31 02:07:38;;;;;;;9.73;4.30;;;5.50;99.90;;;;;;3537509;40;20033;-67
2021/05/31 02:10:09;;;;;;;9.35;4.10;;;5.60;99.90;;;;;;3538483;40;20676;-68
2021/05/31 02:12:57;;;;;;;10.02;4.68;;;5.40;99.90;;;;;;3537677;40;20057;-67
2021/05/31 02:16:02;;;;;;;8.68;4.03;;;5.40;99.90;;;;;;3535699;40;20066;-67
2021/05/31 02:18:37;;;;;;;6.88;4.30;;;5.40;99.90;;;;;;3531674;40;20053;-68
2021/05/31 02:21:08;;;;;;;9.85;4.60;;;5.40;99.90;;;;;;3538580;40;20030;-66
2021/05/31 02:23:36;;;;;;;11.18;4.60;;;5.30;99.90;;;;;;3538173;40;20039;-67
2021/05/31 02:26:03;;;;;;;9.73;4.57;;;5.30;99.90;;;;;;3536408;40;20070;-67
2021/05/31 02:28:29;;;;;;;10.13;4.25;;;5.30;99.90;;;;;;3534664;40;20042;-67
2021/05/31 02:30:56;;;;;;;9.90;4.20;;;5.20;99.90;;;;;;3532858;40;20603;-67
2021/05/31 02:33:25;;;;;;;9.55;4.47;;;5.20;99.90;;;;;;3531537;40;20137;-67
2021/05/31 02:35:52;;;;;;;7.85;4.43;;;5.10;99.90;;;;;;3531278;40;20053;-68
2021/05/31 02:38:17;;;;;;;10.07;4.30;;;5.10;99.90;;;;;;3532510;40;20666;-68
2021/05/31 02:40:43;;;;;;;10.88;4.32;;;5.10;99.90;;;;;;3534262;40;20071;-67
2021/05/31 02:43:09;;;;;;;9.07;4.88;;;5.10;99.90;;;;;;3534584;40;20035;-67
2021/05/31 02:45:36;;;;;;;14.15;5.38;;;5.10;99.90;;;;;;3536447;40;20222;-67
2021/05/31 02:48:04;;;;;;;12.02;6.03;;;5.10;99.90;;;;;;3537876;40;20041;-67
2021/05/31 02:50:31;;;;;;;17.73;5.50;;;5.00;99.90;;;;;;3538591;40;20034;-66
2021/05/31 02:52:58;;;;;;;11.57;4.57;;;5.00;99.90;;;;;;3533454;40;20411;-68
2021/05/31 02:55:27;;;;;;;9.15;5.13;;;5.00;99.90;;;;;;3535966;40;20034;-67
2021/05/31 02:57:53;;;;;;;8.40;4.55;;;5.00;99.90;;;;;;3533288;40;20034;-67
2021/05/31 03:00:23;;;;;;;10.38;4.75;;;5.00;99.90;;;;;;3530146;40;20023;-67
2021/05/31 03:02:49;;;;;;;9.82;4.82;;;5.00;99.90;;;;;;3533901;40;20046;-67
2021/05/31 03:05:21;;;;;;;7.82;4.30;;;5.00;99.90;;;;;;3533883;40;20094;-67
2021/05/31 03:07:47;;;;;;;12.50;5.03;;;5.00;99.90;;;;;;3535017;40;20075;-67
2021/05/31 03:10:14;;;;;;;8.95;4.55;;;4.90;99.90;;;;;;3533428;40;20194;-66
2021/05/31 03:12:41;;;;;;;10.60;4.50;;;4.90;99.90;;;;;;3537664;40;20060;-67
2021/05/31 03:15:09;;;;;;;11.77;4.38;;;4.90;99.90;;;;;;3537064;40;20042;-67
2021/05/31 03:17:34;;;;;;;10.13;4.65;;;4.90;99.90;;;;;;3536853;40;20045;-67
2021/05/31 03:20:00;;;;;;;8.43;4.25;;;4.90;99.90;;;;;;3533830;40;20039;-68
2021/05/31 03:22:26;;;;;;;9.93;4.90;;;4.90;99.90;;;;;;3535969;40;20030;-67
2021/05/31 03:24:52;;;;;;;9.90;4.97;;;4.90;99.90;;;;;;3537664;40;20035;-67
2021/05/31 03:27:18;;;;;;;9.18;4.32;;;4.90;99.90;;;;;;3539392;40;20035;-66
2021/05/31 03:29:44;;;;;;;11.50;4.53;;;4.90;99.90;;;;;;3536877;40;20042;-67
2021/05/31 03:32:10;;;;;;;9.98;4.75;;;4.80;99.90;;;;;;3535771;40;20144;-67
2021/05/31 03:34:36;;;;;;;7.70;4.50;;;4.90;99.90;;;;;;3538090;40;20580;-67
2021/05/31 03:37:02;;;;;;;8.65;4.53;;;4.80;99.90;;;;;;3537694;40;20035;-67
2021/05/31 03:39:27;;;;;;;9.20;4.60;;;4.80;99.90;;;;;;3532382;40;20109;-67
2021/05/31 03:41:53;;;;;;;7.82;4.70;;;4.90;99.90;;;;;;3535253;40;20671;-67
2021/05/31 03:44:19;;;;;;;9.07;4.72;;;4.90;99.90;;;;;;3536028;40;20058;-67
2021/05/31 03:46:45;;;;;;;11.60;4.90;;;4.90;99.90;;;;;;3538030;40;20046;-67
2021/05/31 03:49:10;;;;;;;9.50;4.40;;;4.90;99.90;;;;;;3535875;40;20035;-67
2021/05/31 03:51:36;;;;;;;9.05;4.57;;;4.90;99.90;;;;;;3534677;40;20736;-67
2021/05/31 03:54:02;;;;;;;11.80;4.68;;;4.90;99.90;;;;;;3538041;40;20046;-67
2021/05/31 03:56:28;;;;;;;8.02;4.78;;;5.00;99.90;;;;;;3537303;40;20035;-67
2021/05/31 03:58:54;;;;;;;13.73;4.95;;;5.00;99.90;;;;;;3535821;40;20031;-67
2021/05/31 04:01:20;;;;;;;11.02;5.00;;;5.10;99.90;;;;;;3538426;40;20035;-67
2021/05/31 04:03:46;;;;;;;8.02;4.75;;;5.10;99.90;;;;;;3537188;40;20038;-67
2021/05/31 04:06:27;;;;;;;8.77;5.05;;;5.20;99.90;;;;;;3539524;40;20034;-67
2021/05/31 04:11:48;;;;;;;10.30;4.82;;;5.30;99.90;;;;;;3533527;40;20049;-67
2021/05/31 04:14:18;;;;;;;10.27;4.60;;;5.30;99.90;;;;;;3538469;40;20042;-67
2021/05/31 04:16:49;;;;;;;9.32;5.03;;;5.40;99.90;;;;;;3535805;40;20035;-67
2021/05/31 04:19:17;;;;;;;16.13;5.05;;;5.50;99.90;;;;;;3539235;40;20090;-68
2021/05/31 04:21:45;;;;;;;14.32;4.93;;;5.50;99.90;;;;;;3539278;40;20042;-67
2021/05/31 04:24:12;;;;;;;9.20;4.90;;;5.60;99.90;;;;;;3535354;40;20065;-67
2021/05/31 04:26:39;;;;;;;12.48;4.88;;;5.70;99.90;;;;;;3535389;40;20147;-67
2021/05/31 04:29:07;;;;;;;13.15;5.65;;;5.70;99.90;;;;;;3537080;40;20052;-67
2021/05/31 04:31:34;;;;;;;10.40;5.00;;;5.80;99.90;;;;;;3536159;40;20143;-68
2021/05/31 04:34:01;;;;;;;13.75;4.88;;;5.80;99.90;;;;;;3538361;40;20867;-68
2021/05/31 04:36:33;;;;;;;9.13;5.30;;;6.00;99.90;;;;;;3535990;40;20060;-67
2021/05/31 04:39:02;;;;;;;13.10;5.00;;;6.10;99.90;;;;;;3537424;40;20050;-67
2021/05/31 04:41:28;;;;;;;7.32;4.80;;;6.20;99.90;;;;;;3536084;40;20133;-67
2021/05/31 04:43:53;;;;;;;11.23;6.13;;;6.30;99.90;;;;;;3535020;40;20547;-67
2021/05/31 04:46:19;;;;;;;10.27;5.35;;;6.30;99.90;;;;;;3539268;40;20043;-67
2021/05/31 04:48:45;;;;;;;10.60;5.00;;;6.50;99.90;;;;;;3539121;40;20026;-67
2021/05/31 04:51:11;;;;;;;9.93;5.55;;;;;;;;;;3538181;40;20101;-68
2021/05/31 04:53:36;;;;;;;16.27;5.78;;;5.40;99.90;;;;;;3535791;40;20405;-67
2021/05/31 04:56:06;;;;;;;14.80;5.07;;;6.80;99.90;;;;;;3535806;40;20049;-67
2021/05/31 04:58:32;;;;;;;12.18;5.35;;;7.00;99.90;;;;;;3534763;40;20031;-67
2021/05/31 05:00:58;;;;;;;14.15;5.55;;;7.20;99.90;;;;;;3538498;40;20035;-67
2021/05/31 05:03:24;;;;;;;12.57;5.40;;;7.10;99.90;;;;;;3534236;40;20112;-67
2021/05/31 05:05:50;;;;;;;17.25;5.35;;;7.20;99.90;;;;;;3536571;40;20045;-67
2021/05/31 05:08:16;;;;;;;12.13;5.22;;;7.30;99.90;;;;;;3536706;40;20038;-67
2021/05/31 05:10:42;;;;;;;14.35;5.30;;;7.40;99.90;;;;;;3538524;40;20093;-67
2021/05/31 05:13:08;;;;;;;10.27;5.32;;;7.50;99.90;;;;;;3534195;40;20054;-67
2021/05/31 05:15:35;;;;;;;9.05;4.78;;;7.60;99.90;;;;;;3532523;40;20133;-68
2021/05/31 05:18:01;;;;;;;11.05;5.22;;;7.70;99.90;;;;;;3535168;40;20045;-67
2021/05/31 05:20:28;;;;;;;13.02;6.93;;;7.80;99.90;;;;;;3536697;40;20048;-67
2021/05/31 05:22:55;;;;;;;9.20;5.10;;;8.00;99.90;;;;;;3537936;40;20063;-67
2021/05/31 05:25:22;;;;;;;9.75;4.93;;;8.00;99.90;;;;;;3533593;40;20050;-67
2021/05/31 05:27:50;;;;;;;12.88;5.47;;;8.20;99.90;;;;;;3530280;40;20507;-67
2021/05/31 05:30:19;;;;;;;9.18;4.68;;;8.20;99.90;;;;;;3531908;40;20043;-67
2021/05/31 05:32:49;;;;;;;8.60;4.53;;;8.40;99.90;;;;;;3534866;40;20039;-67
2021/05/31 05:35:29;;;;;;;7.97;4.20;;;8.50;99.90;;;;;;3536549;40;20041;-67
2021/05/31 05:43:16;;;;;;;11.32;4.95;;;8.90;99.90;;;;;;3537955;40;20759;-67
2021/05/31 05:45:55;;;;;;;10.63;4.20;;;9.00;99.90;;;;;;3535053;40;20038;-67
2021/05/31 05:48:21;;;;;;;12.40;4.20;;;9.20;99.90;;;;;;3534703;40;20038;-67
2021/05/31 05:50:47;;;;;;;10.15;4.50;;;9.40;99.90;;;;;;3530022;40;20593;-67
2021/05/31 05:53:13;;;;;;;12.75;4.40;;;9.60;99.90;;;;;;3533953;40;20035;-67
2021/05/31 05:55:38;;;;;;;12.60;5.10;;;9.70;99.90;;;;;;3537913;40;20479;-68
2021/05/31 05:58:05;;;;;;;10.52;4.68;;;9.90;99.90;;;;;;3536607;40;20121;-67
2021/05/31 06:00:32;;;;;;;8.38;4.50;;;9.90;99.90;;;;;;3536711;40;20190;-67
2021/05/31 06:02:58;;;;;;;7.00;3.63;;;10.10;99.90;;;;;;3533112;40;20076;-67
2021/05/31 06:05:25;;;;;;;8.27;4.13;;;10.30;99.90;;;;;;3539492;40;20312;-67
2021/05/31 06:07:51;;;;;;;9.38;4.55;;;9.70;99.90;;;;;;3539540;40;20027;-67
2021/05/31 06:10:18;;;;;;;7.85;4.20;;;10.60;99.90;;;;;;3538027;40;20035;-67
2021/05/31 06:12:43;;;;;;;13.73;5.85;;;10.70;99.90;;;;;;3537189;40;20054;-67
2021/05/31 06:15:11;;;;;;;8.07;4.07;;;10.80;99.90;;;;;;3537414;40;20774;-68
2021/05/31 06:17:37;;;;;;;8.90;3.95;;;10.90;99.90;;;;;;3537297;40;20054;-67
2021/05/31 06:20:05;;;;;;;12.23;4.30;;;11.10;99.90;;;;;;3536581;40;20030;-67
2021/05/31 06:22:39;;;;;;;9.65;4.40;;;11.20;99.90;;;;;;3533778;40;20041;-60
2021/05/31 06:25:07;;;;;;;13.77;5.72;;;11.40;99.90;;;;;;3536747;40;20120;-60
2021/05/31 06:27:33;;;;;;;12.80;4.25;;;11.60;99.90;;;;;;3536980;40;20065;-60
2021/05/31 06:29:58;;;;;;;10.73;3.85;;;11.60;99.90;;;;;;3535164;40;20744;-60
2021/05/31 06:32:24;;;;;;;59.03;6.75;;;11.90;99.90;;;;;;3539870;40;20041;-60
2021/05/31 06:34:50;;;;;;;12.30;3.97;;;12.10;99.90;;;;;;3537946;40;20141;-59
2021/05/31 06:37:15;;;;;;;8.80;3.80;;;12.10;99.90;;;;;;3536014;40;20344;-59
2021/05/31 06:39:41;;;;;;;31.55;4.93;;;12.10;99.90;;;;;;3535919;40;20042;-60
2021/05/31 06:42:07;;;;;;;16.95;3.75;;;12.40;99.90;;;;;;3535048;40;20043;-59
2021/05/31 06:44:32;;;;;;;8.45;3.40;;;12.40;99.90;;;;;;3538886;40;20030;-59
2021/05/31 06:46:58;;;;;;;10.63;3.85;;;12.60;99.90;;;;;;3539484;40;20047;-58
2021/05/31 06:49:24;;;;;;;9.48;3.60;;;12.70;99.90;;;;;;3536587;40;20027;-58
2021/05/31 06:51:50;;;;;;;29.35;5.05;;;12.90;99.90;;;;;;3537231;40;20082;-59
2021/05/31 06:54:16;;;;;;;6.32;3.40;;;13.00;99.90;;;;;;3535062;40;20074;-59
2021/05/31 06:56:41;;;;;;;6.70;3.30;;;13.00;99.90;;;;;;3537867;40;20042;-59
2021/05/31 06:59:07;;;;;;;10.68;3.47;;;13.00;99.90;;;;;;3533546;40;20393;-59
2021/05/31 07:01:33;;;;;;;8.38;3.10;;;13.30;99.90;;;;;;3533846;40;20120;-58
2021/05/31 07:03:59;;;;;;;7.35;2.85;;;13.40;99.90;;;;;;3537152;40;20035;-58
2021/05/31 07:06:24;;;;;;;9.75;3.17;;;13.50;99.90;;;;;;3535934;40;20042;-59
2021/05/31 07:08:50;;;;;;;13.02;4.50;;;;;;;;;;3536975;40;20645;-58
2021/05/31 07:11:18;;;;;;;8.43;4.38;;;13.30;99.90;;;;;;3539580;40;20046;-58
2021/05/31 07:13:46;;;;;;;9.32;3.85;;;13.80;99.90;;;;;;3537657;40;20672;-58
2021/05/31 07:16:15;;;;;;;8.93;3.25;;;14.00;99.90;;;;;;3537871;40;20035;-58
2021/05/31 07:18:41;;;;;;;15.85;3.53;;;14.20;99.90;;;;;;3536351;40;20049;-58
2021/05/31 07:21:07;;;;;;;19.67;10.00;;;14.50;99.90;;;;;;3536202;40;20031;-58
2021/05/31 07:23:36;;;;;;;8.65;3.80;;;;;;;;;;3537218;40;20549;-59
2021/05/31 07:26:03;;;;;;;13.75;4.40;;;14.80;99.90;;;;;;3533581;40;20035;-58
2021/05/31 07:28:29;;;;;;;9.07;3.80;;;;;;;;;;3535239;40;20691;-59
2021/05/31 07:30:55;;;;;;;7.13;2.78;;;15.00;99.90;;;;;;3535927;40;20061;-58
2021/05/31 07:33:21;;;;;;;11.55;3.35;;;15.10;99.70;;;;;;3534362;40;20771;-59
2021/05/31 07:35:46;;;;;;;16.00;4.35;;;15.30;99.90;;;;;;3534476;40;20309;-59
2021/05/31 07:38:12;;;;;;;10.73;3.00;;;15.50;99.10;;;;;;3537324;40;20167;-59
2021/05/31 07:40:38;;;;;;;7.20;2.95;;;15.60;99.50;;;;;;3536072;40;20049;-59
2021/05/31 07:43:04;;;;;;;5.78;3.30;;;15.60;98.50;;;;;;3534886;40;20070;-58
2021/05/31 07:45:30;;;;;;;12.93;3.58;;;15.80;99.30;;;;;;3534036;40;20136;-59
2021/05/31 07:47:55;;;;;;;6.00;2.70;;;15.80;98.50;;;;;;3535805;40;20733;-58
2021/05/31 07:50:21;;;;;;;5.22;2.70;;;15.70;98.90;;;;;;3534365;40;20034;-59
2021/05/31 07:52:47;;;;;;;6.60;2.75;;;16.00;97.80;;;;;;3531318;40;20042;-59
2021/05/31 07:55:16;;;;;;;7.13;2.30;;;16.10;97.80;;;;;;3531113;40;20107;-59
2021/05/31 07:57:43;;;;;;;5.05;2.60;;;16.30;97.80;;;;;;3532345;40;20030;-59
2021/05/31 08:00:12;;;;;;;7.55;2.47;;;16.50;97.30;;;;;;3534194;40;20046;-58
2021/05/31 08:02:44;;;;;;;9.63;2.63;;;16.50;98.20;;;;;;3535941;40;20041;-59
2021/05/31 08:05:11;;;;;;;7.45;2.45;;;;;;;;;;3538882;40;20038;-59
2021/05/31 08:07:37;;;;;;;11.77;2.75;;;16.70;96.40;;;;;;3537080;40;20033;-64
2021/05/31 08:10:03;;;;;;;7.90;2.30;;;17.00;95.40;;;;;;3535539;40;20038;-65
2021/05/31 08:12:29;;;;;;;5.10;2.28;;;17.30;95.00;;;;;;3534038;40;20041;-66
2021/05/31 08:14:55;;;;;;;6.28;1.98;;;17.60;94.70;;;;;;3535105;40;20594;-67
2021/05/31 08:17:20;;;;;;;14.27;6.03;;;17.60;93.30;;;;;;3530223;40;20125;-66
2021/05/31 08:19:47;;;;;;;12.13;3.40;;;17.80;92.70;;;;;;3533903;40;20066;-66
2021/05/31 08:22:13;;;;;;;5.63;2.38;;;18.10;92.50;;;;;;3536013;40;20117;-65
2021/05/31 08:24:39;;;;;;;9.30;3.05;;;18.10;92.60;;;;;;3537610;40;20128;-66
2021/05/31 08:27:05;;;;;;;6.05;2.92;;;18.50;91.90;;;;;;3536447;40;20056;-67
2021/05/31 08:29:31;;;;;;;4.72;2.25;;;18.80;92.10;;;;;;3534312;40;20051;-66
2021/05/31 08:31:57;;;;;;;16.58;6.07;;;19.00;91.30;;;;;;3531876;40;20494;-66
2021/05/31 08:34:24;;;;;;;6.80;2.80;;;19.10;90.40;;;;;;3543891;40;20405;-66
2021/05/31 08:36:50;;;;;;;6.53;2.78;;;19.40;90.30;;;;;;3535029;40;20569;-66
2021/05/31 08:39:16;;;;;;;10.50;3.03;;;19.40;88.20;;;;;;3536714;40;20035;-66
2021/05/31 08:41:42;;;;;;;12.30;3.95;;;19.50;90.20;;;;;;3538357;40;20034;-66
2021/05/31 08:44:08;;;;;;;6.22;3.55;;;19.50;85.50;;;;;;3534236;40;20042;-67
2021/05/31 08:46:35;;;;;;;7.15;2.50;;;19.80;88.40;;;;;;3532329;40;20079;-68
2021/05/31 08:49:02;;;;;;;5.13;2.40;;;20.10;86.30;;;;;;3533013;40;20053;-67
2021/05/31 08:51:27;;;;;;;4.32;2.22;;;20.10;85.90;;;;;;3534725;40;20039;-67
2021/05/31 08:53:53;;;;;;;5.28;2.38;;;20.50;82.90;;;;;;3536842;40;20140;-66
2021/05/31 08:56:19;;;;;;;8.88;2.72;;;20.60;77.10;;;;;;3537205;40;20152;-66
2021/05/31 08:58:48;;;;;;;9.65;2.90;;;20.50;75.80;;;;;;3536512;40;20042;-65
2021/05/31 09:01:14;;;;;;;5.88;2.33;;;20.90;74.80;;;;;;3535928;40;20589;-65
2021/05/31 09:03:42;;;;;;;4.68;2.20;;;20.40;76.70;;;;;;3537471;40;20046;-65
2021/05/31 09:06:10;;;;;;;4.80;2.10;;;20.40;76.70;;;;;;3536406;40;20400;-64
2021/05/31 09:08:36;;;;;;;7.80;2.65;;;20.80;79.00;;;;;;3537886;40;20038;-70
2021/05/31 09:11:06;;;;;;;8.63;3.05;;;21.00;77.10;;;;;;3532786;40;20038;-70
2021/05/31 09:13:43;;;;;;;5.95;2.10;;;21.20;74.30;;;;;;3532384;40;20167;-70
2021/05/31 09:16:26;;;;;;;3.75;1.83;;;21.30;72.70;;;;;;3536053;40;20509;-70
2021/05/31 09:18:58;;;;;;;3.65;1.95;;;21.70;72.70;;;;;;3536861;40;20042;-70
2021/05/31 09:21:34;;;;;;;5.32;1.90;;;21.90;69.20;;;;;;3535182;40;20031;-70
2021/05/31 09:24:06;;;;;;;5.00;2.00;;;22.00;67.50;;;;;;3535472;40;20412;-70
2021/05/31 09:26:47;;;;;;;7.57;2.22;;;22.50;65.00;;;;;;3532269;40;20443;-70
2021/05/31 09:29:13;;;;;;;7.10;2.40;;;22.50;64.80;;;;;;3539405;40;20066;-70
2021/05/31 09:31:39;;;;;;;9.40;2.28;;;22.40;66.30;;;;;;3536330;40;20019;-65
2021/05/31 09:34:09;;;;;;;7.03;2.10;;;22.20;62.30;;;;;;3538147;40;20050;-65
2021/05/31 09:36:48;;;;;;;8.30;2.35;;;21.90;63.80;;;;;;3540104;40;20454;-65
2021/05/31 09:39:14;;;;;;;20.83;9.23;;;22.10;60.10;;;;;;3539860;40;20419;-65
2021/05/31 09:41:40;;;;;;;5.57;2.30;;;22.30;54.30;;;;;;3537706;40;20094;-65
2021/05/31 09:44:08;;;;;;;3.15;1.55;;;22.50;54.60;;;;;;3536900;40;20030;-65
2021/05/31 09:46:39;;;;;;;7.25;2.08;;;22.40;57.20;;;;;;3536323;40;20116;-65
2021/05/31 09:49:22;;;;;;;3.30;1.85;;;22.60;55.40;;;;;;3534919;40;20049;-65
2021/05/31 09:52:00;;;;;;;4.35;2.08;;;23.00;52.90;;;;;;3533797;40;20035;-65
2021/05/31 09:54:33;;;;;;;7.07;2.10;;;22.90;53.70;;;;;;3538045;40;20043;-65
2021/05/31 09:57:20;;;;;;;3.22;1.85;;;23.10;52.20;;;;;;3537359;40;20030;-65
2021/05/31 09:59:58;;;;;;;3.50;1.90;;;22.60;51.60;;;;;;3535434;40;20230;-65
2021/05/31 10:05:10;;;;;;;6.72;2.28;;;22.60;54.20;;;;;;3539140;40;20124;-65
2021/05/31 10:10:06;;;;;;;7.72;2.40;;;22.70;53.70;;;;;;3540136;40;20046;-65
2021/05/31 10:12:32;;;;;;;4.63;2.22;;;23.10;52.10;;;;;;3537417;40;20537;-65
2021/05/31 10:14:58;;;;;;;11.48;2.42;;;23.00;53.40;;;;;;3540444;40;20209;-65
2021/05/31 10:17:25;;;;;;;4.18;2.50;;;23.30;52.50;;;;;;3539615;40;20515;-66
2021/05/31 10:19:51;;;;;;;7.50;2.50;;;23.30;51.90;;;;;;3536247;40;20043;-65
2021/05/31 10:22:17;;;;;;;5.55;2.40;;;23.20;51.60;;;;;;3539019;40;20038;-65
2021/05/31 10:24:44;;;;;;;6.50;2.60;;;23.50;51.60;;;;;;3537844;40;20042;-65
2021/05/31 10:27:13;;;;;;;7.75;2.20;;;23.70;52.20;;;;;;3536993;40;20050;-64
2021/05/31 10:29:44;;;;;;;6.70;2.17;;;23.90;50.50;;;;;;3537630;40;20611;-65
2021/05/31 10:32:12;;;;;;;11.63;2.30;;;23.50;50.20;;;;;;3532992;40;20675;-65
2021/05/31 10:34:49;;;;;;;5.65;2.30;;;23.40;52.40;;;;;;3535466;40;20109;-65
2021/05/31 10:37:19;;;;;;;10.27;2.25;;;22.80;50.40;;;;;;3538810;40;20039;-65
2021/05/31 10:39:55;;;;;;;9.48;2.30;;;23.20;49.80;;;;;;3537394;40;20127;-65
2021/05/31 10:42:22;;;;;;;5.65;2.17;;;23.50;51.80;;;;;;3539949;40;20054;-65
2021/05/31 10:44:47;;;;;;;4.03;2.00;;;23.80;49.00;;;;;;3540288;40;20039;-60
2021/05/31 10:47:18;;;;;;;5.38;2.33;;;23.70;47.60;;;;;;3539170;40;20066;-59
2021/05/31 10:49:54;;;;;;;9.48;5.43;;;23.70;48.80;;;;;;3536587;40;20136;-60
2021/05/31 10:52:19;;;;;;;7.05;2.90;;;23.40;49.30;;;;;;3539468;40;20088;-60
2021/05/31 10:54:45;;;;;;;4.22;2.28;;;23.50;46.60;;;;;;3534685;40;20034;-59
2021/05/31 10:57:11;;;;;;;5.38;2.13;;;23.40;46.80;;;;;;3531007;40;20146;-60
2021/05/31 10:59:50;;;;;;;5.65;1.92;;;23.50;47.50;;;;;;3537010;40;20129;-59
2021/05/31 11:02:27;;;;;;;8.93;2.13;;;23.80;47.40;;;;;;3539008;40;20053;-59
2021/05/31 11:05:07;;;;;;;5.30;1.85;;;23.90;46.50;;;;;;3537769;40;20053;-60
2021/05/31 11:07:32;;;;;;;4.50;1.70;;;24.20;46.50;;;;;;3539057;40;20496;-60
2021/05/31 11:09:58;;;;;;;4.75;1.92;;;24.10;45.90;;;;;;3540872;40;20059;-59
2021/05/31 11:12:28;;;;;;;3.90;1.80;;;24.00;44.20;;;;;;3536718;40;20428;-60
2021/05/31 11:15:06;;;;;;;7.75;2.53;;;23.30;47.10;;;;;;3537650;40;20435;-59
2021/05/31 11:17:32;;;;;;;7.93;1.90;;;23.90;45.00;;;;;;3537720;40;20042;-60
2021/05/31 11:19:57;;;;;;;6.63;2.10;;;24.00;45.50;;;;;;3537109;40;20319;-59
2021/05/31 11:22:31;;;;;;;11.35;2.50;;;24.50;45.30;;;;;;3538714;40;20042;-60
2021/05/31 11:25:04;;;;;;;6.35;3.10;;;24.40;45.60;;;;;;3537842;40;20086;-60
2021/05/31 11:27:35;;;;;;;4.43;2.30;;;24.50;45.20;;;;;;3536541;40;20039;-60
2021/05/31 11:30:05;;;;;;;4.35;2.20;;;24.50;46.20;;;;;;3535480;40;20424;-61
2021/05/31 11:32:30;;;;;;;6.63;2.72;;;25.10;42.00;;;;;;3534757;40;20051;-60
2021/05/31 11:34:59;;;;;;;4.25;1.70;;;25.10;42.60;;;;;;3534461;40;20420;-60
2021/05/31 11:37:27;;;;;;;6.40;1.90;;;25.10;43.60;;;;;;3540140;40;20055;-59
2021/05/31 11:39:54;;;;;;;3.92;2.03;;;25.30;41.40;;;;;;3539039;40;20163;-60
2021/05/31 11:42:20;;;;;;;10.90;1.88;;;25.40;41.40;;;;;;3538395;40;20042;-60
2021/05/31 11:44:53;;;;;;;7.43;2.40;;;25.80;41.10;;;;;;3534824;40;20333;-60
2021/05/31 11:47:24;;;;;;;7.22;1.90;;;26.40;40.20;;;;;;3535293;40;20034;-60
2021/05/31 11:49:51;;;;;;;4.70;2.17;;;26.30;42.20;;;;;;3539797;40;20094;-68
2021/05/31 11:52:17;;;;;;;8.07;1.88;;;26.60;41.80;;;;;;3534134;40;20050;-66
2021/05/31 11:54:43;;;;;;;5.80;1.88;;;27.10;40.90;;;;;;3536995;40;20030;-66
2021/05/31 11:57:14;;;;;;;8.13;1.73;;;27.90;38.20;;;;;;3534533;40;20054;-66
2021/05/31 11:59:43;;;;;;;7.20;1.88;;;27.90;38.80;;;;;;3537256;40;20039;-66
2021/05/31 12:02:16;;;;;;;14.98;2.40;;;28.30;39.40;;;;;;3541701;40;20040;-66
2021/05/31 12:04:43;;;;;;;6.82;1.65;;;28.40;37.60;;;;;;3541733;40;20148;-67
2021/05/31 12:07:11;;;;;;;4.72;1.67;;;28.90;61.30;;;;;;3538556;40;20164;-67
2021/05/31 12:09:44;;;;;;;2.63;1.60;;;28.10;36.70;;;;;;3537777;40;20087;-66
2021/05/31 12:12:12;;;;;;;4.88;2.00;;;28.00;37.40;;;;;;3537389;40;20086;-66
2021/05/31 12:14:47;;;;;;;5.65;1.80;;;26.60;38.40;;;;;;3536364;40;20035;-66
2021/05/31 12:17:15;;;;;;;4.72;1.65;;;26.50;40.10;;;;;;3539526;40;20386;-66
2021/05/31 12:19:42;;;;;;;6.10;1.95;;;26.90;38.70;;;;;;3539256;40;20035;-66
2021/05/31 12:22:08;;;;;;;2.95;1.80;;;27.30;37.10;;;;;;3538621;40;20049;-67
2021/05/31 12:24:42;;;;;;;3.40;1.40;;;27.40;38.00;;;;;;3539878;40;20145;-67
2021/05/31 12:27:08;;;;;;;3.38;1.80;;;26.70;38.30;;;;;;3538155;40;20039;-67
2021/05/31 12:29:42;;;;;;;7.03;1.60;;;27.10;37.70;;;;;;3539126;40;20778;-67
2021/05/31 12:32:10;;;;;;;5.15;1.63;;;27.60;37.80;;;;;;3540880;40;20051;-67
2021/05/31 12:34:37;;;;;;;5.90;1.50;;;28.60;37.20;;;;;;3538202;40;20035;-67
2021/05/31 12:37:05;;;;;;;5.53;1.58;;;29.40;34.70;;;;;;3538016;40;20030;-67
2021/05/31 12:39:32;;;;;;;7.53;1.45;;;30.00;34.00;;;;;;3534540;40;20038;-67
2021/05/31 12:42:04;;;;;;;2.95;1.58;;;29.90;34.40;;;;;;3534909;40;20809;-67
2021/05/31 12:44:30;;;;;;;3.78;1.20;;;30.30;33.70;;;;;;3539767;40;20528;-67
2021/05/31 12:47:19;;;;;;;2.58;1.50;;;30.30;34.50;;;;;;3535573;40;20067;-66
2021/05/31 12:49:48;;;;;;;2.40;1.35;;;30.10;34.80;;;;;;3534531;40;20039;-67
2021/05/31 12:52:21;;;;;;;5.15;1.48;;;30.10;33.30;;;;;;3536902;40;20034;-66
2021/05/31 12:55:08;;;;;;;2.08;1.35;;;30.60;34.10;;;;;;3535654;40;20038;-66
2021/05/31 12:57:39;;;;;;;2.85;1.50;;;31.10;32.90;;;;;;3540341;40;20054;-66
2021/05/31 13:00:27;;;;;;;2.78;1.27;;;31.30;31.90;;;;;;3539055;40;20035;-66
2021/05/31 13:03:01;;;;;;;15.65;2.17;;;31.30;32.50;;;;;;3538219;40;20117;-67
2021/05/31 13:05:29;;;;;;;4.70;1.50;;;31.10;32.40;;;;;;3537874;40;20626;-67
2021/05/31 13:08:01;;;;;;;3.92;1.58;;;31.20;33.10;;;;;;3539136;40;20030;-67
2021/05/31 13:10:29;;;;;;;3.95;1.38;;;30.40;33.00;;;;;;3540162;40;20114;-67
2021/05/31 13:12:55;;;;;;;5.78;1.42;;;29.90;34.20;;;;;;3541257;40;20389;-67
2021/05/31 13:15:37;;;;;;;4.72;1.50;;;30.60;34.80;;;;;;3538796;40;20047;-67